Time;durP1;ratioP1;P1;durP2;ratioP2;P2;SDS_P1;SDS_P2;PMS_P1;PMS_P2;Temp;Humidity;BMP_temperature;BMP_pressure;BME280_temperature;BME280_humidity;BME280_pressure;Samples;Min_cycle;Max_cycle;Signal;HPM_P1;HPM_P2
2022/10/06 00:00:39;;;;;;;2.67;0.70;;;13.60;99.90;;;;;;5070885;28;20451;-67
2022/10/06 00:03:05;;;;;;;3.92;1.10;;;13.60;99.90;;;;;;5080689;28;20168;-67
2022/10/06 00:05:31;;;;;;;4.35;1.10;;;13.50;99.90;;;;;;5081983;28;20088;-66
2022/10/06 00:07:57;;;;;;;1.88;0.60;;;13.60;99.90;;;;;;5078475;28;20036;-67
2022/10/06 00:10:22;;;;;;;2.22;0.77;;;13.60;99.90;;;;;;5073455;28;20048;-67
2022/10/06 00:12:50;;;;;;;3.55;0.70;;;13.60;99.90;;;;;;5078863;28;20044;-67
2022/10/06 00:15:20;;;;;;;1.55;0.70;;;13.50;99.90;;;;;;5079479;28;20051;-67
2022/10/06 00:17:46;;;;;;;2.30;0.70;;;13.60;99.90;;;;;;5079784;28;20037;-67
2022/10/06 00:20:12;;;;;;;2.35;0.70;;;13.60;99.90;;;;;;5070445;28;20072;-67
2022/10/06 00:22:48;;;;;;;4.47;0.80;;;13.50;99.90;;;;;;5071272;28;20094;-67
2022/10/06 00:25:17;;;;;;;3.75;0.90;;;13.50;99.90;;;;;;5080065;28;20052;-67
2022/10/06 00:27:48;;;;;;;1.67;0.60;;;13.40;99.90;;;;;;5090369;28;20065;-67
2022/10/06 00:30:22;;;;;;;2.70;0.70;;;13.40;99.90;;;;;;5089141;28;20515;-66
2022/10/06 00:32:54;;;;;;;2.38;0.77;;;13.30;99.90;;;;;;5103503;28;20564;-67
2022/10/06 00:35:20;;;;;;;2.92;0.75;;;13.30;99.90;;;;;;5088370;28;20071;-67
2022/10/06 00:37:46;;;;;;;3.38;0.80;;;13.30;99.90;;;;;;5091462;28;20056;-67
2022/10/06 00:40:12;;;;;;;3.53;1.00;;;13.30;99.90;;;;;;5076192;28;20582;-66
2022/10/06 00:43:27;;;;;;;3.22;0.95;;;13.30;99.90;;;;;;5070650;28;20041;-67
2022/10/06 00:45:53;;;;;;;2.72;0.93;;;13.20;99.90;;;;;;5067420;28;20414;-67
2022/10/06 00:48:22;;;;;;;2.15;0.70;;;13.20;99.90;;;;;;5075124;28;20058;-66
2022/10/06 00:50:50;;;;;;;2.97;0.70;;;13.20;99.90;;;;;;5088713;28;20127;-66
2022/10/06 00:53:16;;;;;;;3.17;0.80;;;13.10;99.90;;;;;;5070786;28;20501;-67
2022/10/06 00:55:42;;;;;;;1.55;0.55;;;13.10;99.90;;;;;;5075166;28;20048;-67
2022/10/06 00:58:09;;;;;;;2.40;0.85;;;13.10;99.90;;;;;;5077554;28;20049;-67
2022/10/06 01:00:34;;;;;;;1.70;1.15;;;13.10;99.90;;;;;;5075043;28;20044;-66
2022/10/06 01:03:30;;;;;;;1.55;0.65;;;13.20;99.90;;;;;;5076866;28;20403;-66
2022/10/06 01:05:57;;;;;;;1.80;0.70;;;13.20;99.90;;;;;;5060510;28;20417;-66
2022/10/06 01:08:23;;;;;;;1.88;0.77;;;13.10;99.90;;;;;;5061189;28;20099;-66
2022/10/06 01:10:48;;;;;;;1.70;0.70;;;13.10;99.90;;;;;;5069653;28;20056;-66
2022/10/06 01:13:16;;;;;;;2.65;0.80;;;13.10;99.90;;;;;;5070957;28;20051;-66
2022/10/06 01:16:00;;;;;;;3.22;0.70;;;13.10;99.90;;;;;;5069401;28;20044;-66
2022/10/06 01:18:28;;;;;;;2.97;0.80;;;13.00;99.90;;;;;;5072892;28;20051;-66
2022/10/06 01:21:12;;;;;;;2.85;0.80;;;12.90;99.90;;;;;;5070680;28;20036;-66
2022/10/06 01:23:38;;;;;;;2.25;0.65;;;12.90;99.90;;;;;;5070495;28;20045;-67
2022/10/06 01:26:08;;;;;;;2.33;0.60;;;12.80;99.90;;;;;;5073172;28;20044;-67
2022/10/06 01:28:35;;;;;;;2.88;0.70;;;12.80;99.90;;;;;;5070900;28;20044;-67
2022/10/06 01:31:03;;;;;;;1.88;0.75;;;12.80;99.90;;;;;;5086850;28;20079;-67
2022/10/06 01:33:29;;;;;;;3.00;0.98;;;12.80;99.90;;;;;;5077126;28;20045;-67
2022/10/06 01:35:55;;;;;;;4.40;1.02;;;12.80;99.90;;;;;;5077589;28;20040;-67
2022/10/06 01:38:21;;;;;;;2.95;1.02;;;12.70;99.90;;;;;;5072047;28;20040;-67
2022/10/06 01:40:50;;;;;;;3.03;0.75;;;12.70;99.90;;;;;;5070368;28;20041;-67
2022/10/06 01:43:15;;;;;;;3.25;0.73;;;12.70;99.90;;;;;;5071888;28;20049;-68
2022/10/06 01:45:41;;;;;;;3.42;0.75;;;12.70;99.90;;;;;;5074490;28;20037;-66
2022/10/06 01:48:07;;;;;;;2.03;0.63;;;12.70;99.90;;;;;;5074449;28;20432;-67
2022/10/06 01:50:33;;;;;;;2.35;0.73;;;12.70;99.90;;;;;;5081645;28;20659;-66
2022/10/06 01:52:59;;;;;;;3.20;0.93;;;12.60;99.90;;;;;;5089622;28;20127;-66
2022/10/06 01:55:25;;;;;;;4.50;1.05;;;12.50;99.90;;;;;;5074308;28;20392;-66
2022/10/06 01:57:50;;;;;;;2.22;0.90;;;12.50;99.90;;;;;;5072942;28;20045;-66
2022/10/06 02:00:17;;;;;;;3.17;1.00;;;12.50;99.90;;;;;;5074325;28;20052;-66
2022/10/06 02:02:43;;;;;;;2.45;0.82;;;12.60;99.90;;;;;;5073928;28;20056;-66
2022/10/06 02:05:10;;;;;;;4.32;0.80;;;12.60;99.90;;;;;;5072785;28;20059;-66
2022/10/06 02:07:36;;;;;;;3.38;0.70;;;12.60;99.90;;;;;;5091466;28;20055;-66
2022/10/06 02:10:04;;;;;;;2.38;0.70;;;12.50;99.90;;;;;;5086635;28;20087;-66
2022/10/06 02:12:31;;;;;;;3.25;1.17;;;12.50;99.90;;;;;;5074947;28;20048;-66
2022/10/06 02:14:57;;;;;;;2.72;0.80;;;12.50;99.90;;;;;;5083779;28;20039;-66
2022/10/06 02:17:22;;;;;;;2.67;0.70;;;12.50;99.90;;;;;;5081256;28;20052;-66
2022/10/06 02:19:48;;;;;;;4.47;0.80;;;12.50;99.90;;;;;;5075981;28;20063;-66
2022/10/06 02:22:14;;;;;;;2.67;0.70;;;12.50;99.90;;;;;;5087099;28;20431;-67
2022/10/06 02:24:40;;;;;;;2.85;0.90;;;12.40;99.90;;;;;;5074520;28;20045;-66
2022/10/06 02:27:06;;;;;;;2.47;1.10;;;12.30;99.90;;;;;;5094076;28;20044;-66
2022/10/06 02:29:33;;;;;;;2.35;0.95;;;12.40;99.90;;;;;;5087952;28;20151;-66
2022/10/06 02:31:58;;;;;;;5.03;1.00;;;12.30;99.90;;;;;;5081350;28;20084;-66
2022/10/06 02:34:25;;;;;;;4.03;1.10;;;12.30;99.90;;;;;;5081128;28;20084;-66
2022/10/06 02:36:50;;;;;;;2.50;0.90;;;12.20;99.90;;;;;;5073586;28;20044;-65
2022/10/06 02:39:16;;;;;;;1.60;0.60;;;12.20;99.90;;;;;;5082026;28;20553;-66
2022/10/06 02:41:42;;;;;;;3.63;1.25;;;12.20;99.90;;;;;;5077957;28;20131;-66
2022/10/06 02:44:07;;;;;;;3.83;1.10;;;12.20;99.90;;;;;;5073320;28;20045;-66
2022/10/06 02:46:33;;;;;;;5.05;0.95;;;12.10;99.90;;;;;;5080315;28;20040;-66
2022/10/06 02:48:59;;;;;;;3.58;0.98;;;12.10;99.90;;;;;;5081291;28;20048;-66
2022/10/06 02:51:24;;;;;;;3.13;1.27;;;12.10;99.90;;;;;;5072086;28;20122;-66
2022/10/06 02:53:50;;;;;;;2.60;0.95;;;12.10;99.90;;;;;;5105602;28;20076;-67
2022/10/06 02:56:22;;;;;;;3.75;1.13;;;12.00;99.90;;;;;;5072986;28;20052;-67
2022/10/06 02:58:49;;;;;;;2.97;0.90;;;12.00;99.90;;;;;;5072104;28;20053;-67
2022/10/06 03:01:17;;;;;;;6.72;1.10;;;12.00;99.90;;;;;;5072446;28;20109;-66
2022/10/06 03:03:45;;;;;;;3.60;1.00;;;12.10;99.90;;;;;;5073122;28;20056;-67
2022/10/06 03:06:26;;;;;;;3.40;1.08;;;12.10;99.90;;;;;;5072731;28;20492;-67
2022/10/06 03:08:54;;;;;;;4.63;1.15;;;12.10;99.90;;;;;;5073132;28;20130;-67
2022/10/06 03:11:22;;;;;;;5.07;1.25;;;12.10;99.90;;;;;;5072623;28;20044;-67
2022/10/06 03:13:50;;;;;;;3.97;1.13;;;12.10;99.90;;;;;;5072878;28;20070;-67
2022/10/06 03:16:20;;;;;;;2.67;0.90;;;12.10;99.90;;;;;;5081940;28;20119;-67
2022/10/06 03:18:48;;;;;;;3.50;0.93;;;12.00;99.90;;;;;;5071465;28;20052;-66
2022/10/06 03:21:15;;;;;;;5.32;1.33;;;12.00;99.90;;;;;;5072173;28;20119;-66
2022/10/06 03:23:46;;;;;;;5.05;1.30;;;12.00;99.90;;;;;;5072623;28;20052;-66
2022/10/06 03:26:14;;;;;;;8.60;1.38;;;11.90;99.90;;;;;;5085574;28;20492;-67
2022/10/06 03:28:40;;;;;;;3.50;1.10;;;11.90;99.90;;;;;;5088208;28;20048;-66
2022/10/06 03:31:06;;;;;;;3.78;0.93;;;11.90;99.90;;;;;;5072564;28;20069;-67
2022/10/06 03:33:33;;;;;;;3.78;1.35;;;11.80;99.90;;;;;;5071767;28;20056;-66
2022/10/06 03:36:19;;;;;;;3.80;1.10;;;11.80;99.90;;;;;;5072406;28;20402;-67
2022/10/06 03:38:45;;;;;;;4.77;1.27;;;11.80;99.90;;;;;;5072498;28;20161;-67
2022/10/06 03:41:17;;;;;;;4.03;0.98;;;11.70;99.90;;;;;;5087621;28;20298;-67
2022/10/06 03:43:44;;;;;;;2.90;1.00;;;11.70;99.90;;;;;;5083653;28;20053;-68
2022/10/06 03:46:19;;;;;;;4.82;1.48;;;11.70;99.90;;;;;;5070996;28;20485;-67
2022/10/06 03:48:46;;;;;;;4.35;1.23;;;11.70;99.90;;;;;;5070460;28;20052;-68
2022/10/06 03:51:25;;;;;;;3.92;0.90;;;11.70;99.90;;;;;;5079309;28;20052;-67
2022/10/06 03:53:51;;;;;;;4.25;1.00;;;11.70;99.90;;;;;;5072025;28;20462;-66
2022/10/06 03:56:30;;;;;;;4.18;1.33;;;11.60;99.90;;;;;;5071754;28;20186;-67
2022/10/06 03:59:01;;;;;;;4.82;0.90;;;11.60;99.90;;;;;;5076985;28;20178;-67
2022/10/06 04:01:39;;;;;;;3.92;1.10;;;11.50;99.90;;;;;;5071559;28;20060;-67
2022/10/06 04:04:06;;;;;;;3.55;1.10;;;11.50;99.90;;;;;;5070353;28;20053;-67
2022/10/06 04:06:35;;;;;;;4.85;1.00;;;11.40;99.90;;;;;;5070888;28;20080;-66
2022/10/06 04:09:03;;;;;;;4.25;0.95;;;11.40;99.90;;;;;;5071493;28;20497;-67
2022/10/06 04:11:32;;;;;;;2.58;0.98;;;11.40;99.90;;;;;;5071904;28;20044;-67
2022/10/06 04:14:09;;;;;;;4.22;1.10;;;11.40;99.90;;;;;;5071561;28;20501;-67
2022/10/06 04:16:40;;;;;;;4.50;1.00;;;11.30;99.90;;;;;;5056156;28;20037;-67
2022/10/06 04:19:09;;;;;;;3.05;1.08;;;11.40;99.90;;;;;;5074140;28;20170;-66
2022/10/06 04:21:36;;;;;;;3.47;0.90;;;11.40;99.90;;;;;;5071119;28;20053;-66
2022/10/06 04:24:02;;;;;;;5.70;1.38;;;11.30;99.90;;;;;;5071342;28;20044;-66
2022/10/06 04:26:31;;;;;;;5.00;1.00;;;11.30;99.90;;;;;;5082288;28;20044;-66
2022/10/06 04:28:57;;;;;;;4.15;1.20;;;11.40;99.90;;;;;;5073539;28;20045;-67
2022/10/06 04:31:25;;;;;;;4.53;0.93;;;11.40;99.90;;;;;;5077677;28;20089;-67
2022/10/06 04:33:56;;;;;;;4.68;1.42;;;11.30;99.90;;;;;;5075591;28;20242;-66
2022/10/06 04:36:30;;;;;;;4.47;1.05;;;11.20;99.90;;;;;;5076969;28;20074;-67
2022/10/06 04:39:01;;;;;;;4.15;1.05;;;11.20;99.90;;;;;;5088198;28;20401;-66
2022/10/06 04:41:38;;;;;;;4.45;0.95;;;11.20;99.90;;;;;;5091123;28;20066;-66
2022/10/06 04:44:05;;;;;;;5.13;1.42;;;11.10;99.90;;;;;;5070984;28;20795;-67
2022/10/06 04:46:32;;;;;;;6.38;1.35;;;11.10;99.90;;;;;;5071047;28;20083;-67
2022/10/06 04:48:57;;;;;;;4.35;1.45;;;11.30;99.90;;;;;;5062495;28;20119;-66
2022/10/06 04:51:25;;;;;;;5.22;1.48;;;11.20;99.90;;;;;;5070963;28;20236;-66
2022/10/06 04:53:51;;;;;;;2.67;0.98;;;11.00;99.90;;;;;;5070962;28;20091;-66
2022/10/06 04:56:20;;;;;;;4.32;1.33;;;11.00;99.90;;;;;;5070868;28;20055;-66
2022/10/06 04:58:47;;;;;;;3.47;1.10;;;11.00;99.90;;;;;;5072842;28;20060;-67
2022/10/06 05:01:15;;;;;;;4.82;1.20;;;10.90;99.90;;;;;;5079190;28;20109;-66
2022/10/06 05:03:41;;;;;;;4.57;1.20;;;10.80;99.90;;;;;;5071189;28;20117;-66
2022/10/06 05:06:11;;;;;;;4.82;1.00;;;10.70;99.90;;;;;;5079162;28;20090;-67
2022/10/06 05:08:37;;;;;;;6.60;1.25;;;10.70;99.90;;;;;;5090754;28;20116;-67
2022/10/06 05:11:05;;;;;;;3.85;1.10;;;10.60;99.90;;;;;;5070953;28;20568;-67
2022/10/06 05:13:31;;;;;;;4.57;1.30;;;10.60;99.90;;;;;;5070817;28;20107;-66
2022/10/06 05:16:00;;;;;;;4.75;1.42;;;10.50;99.90;;;;;;5070757;28;20090;-66
2022/10/06 05:18:29;;;;;;;4.75;1.38;;;10.50;99.90;;;;;;5082588;28;20055;-67
2022/10/06 05:21:03;;;;;;;5.72;1.10;;;10.50;99.90;;;;;;5077250;28;20049;-67
2022/10/06 05:23:29;;;;;;;4.72;1.10;;;10.40;99.90;;;;;;5074936;28;20521;-67
2022/10/06 05:25:56;;;;;;;3.75;1.23;;;10.40;99.90;;;;;;5084380;28;20040;-66
2022/10/06 05:28:23;;;;;;;6.15;1.40;;;10.40;99.90;;;;;;5095278;28;20048;-67
2022/10/06 05:30:58;;;;;;;4.30;1.35;;;10.40;99.90;;;;;;5075599;28;20040;-67
2022/10/06 05:33:26;;;;;;;4.28;1.15;;;10.40;99.90;;;;;;5084948;28;20056;-66
2022/10/06 05:36:04;;;;;;;4.80;1.52;;;10.30;99.90;;;;;;5073507;28;20595;-67
2022/10/06 05:38:30;;;;;;;1.63;0.80;;;10.40;99.90;;;;;;5073213;28;20576;-67
2022/10/06 05:41:16;;;;;;;4.10;1.20;;;10.30;99.90;;;;;;5073939;28;20063;-67
2022/10/06 05:43:42;;;;;;;3.95;0.95;;;10.30;99.90;;;;;;5074215;28;20074;-64
2022/10/06 05:46:16;;;;;;;8.02;1.60;;;10.30;99.90;;;;;;5074111;28;20052;-66
2022/10/06 05:48:48;;;;;;;6.97;1.83;;;10.30;99.90;;;;;;5068102;28;20045;-66
2022/10/06 05:51:14;;;;;;;3.15;1.00;;;10.20;99.90;;;;;;5094880;28;20040;-66
2022/10/06 05:53:40;;;;;;;6.60;1.40;;;10.20;99.90;;;;;;5084879;28;20066;-67
2022/10/06 05:56:16;;;;;;;5.85;1.50;;;10.10;99.90;;;;;;5074375;28;20048;-67
2022/10/06 05:58:44;;;;;;;6.32;1.10;;;10.30;99.90;;;;;;5073687;28;20049;-67
2022/10/06 06:01:15;;;;;;;4.63;1.20;;;10.20;99.90;;;;;;5072570;28;20588;-67
2022/10/06 06:03:46;;;;;;;4.50;1.05;;;10.20;99.90;;;;;;5078199;28;20074;-67
2022/10/06 06:06:17;;;;;;;4.05;1.25;;;10.30;99.90;;;;;;5076172;28;20045;-68
2022/10/06 06:08:43;;;;;;;7.13;1.30;;;10.30;99.90;;;;;;5072737;28;20433;-67
2022/10/06 06:11:09;;;;;;;3.03;1.13;;;10.30;99.90;;;;;;5056079;28;20051;-66
2022/10/06 06:13:35;;;;;;;7.18;1.45;;;10.30;99.90;;;;;;5073985;28;20080;-67
2022/10/06 06:16:05;;;;;;;4.85;1.33;;;10.30;99.90;;;;;;5073700;28;20083;-67
2022/10/06 06:18:33;;;;;;;5.70;1.27;;;10.30;99.90;;;;;;5090784;28;20431;-64
2022/10/06 06:21:00;;;;;;;3.90;1.20;;;10.30;99.90;;;;;;5084539;28;20090;-64
2022/10/06 06:23:37;;;;;;;5.30;1.33;;;10.30;99.90;;;;;;5068339;28;20447;-64
2022/10/06 06:26:09;;;;;;;5.50;1.20;;;10.40;99.90;;;;;;5071352;28;20040;-64
2022/10/06 06:28:35;;;;;;;4.45;1.30;;;10.40;99.90;;;;;;5070846;28;20063;-64
2022/10/06 06:31:02;;;;;;;4.45;1.10;;;10.50;99.90;;;;;;5070063;28;20476;-64
2022/10/06 06:33:29;;;;;;;3.83;1.25;;;10.50;99.90;;;;;;5073109;28;20058;-64
2022/10/06 06:35:56;;;;;;;4.55;1.45;;;10.50;99.90;;;;;;5073048;28;20098;-64
2022/10/06 06:38:22;;;;;;;3.55;1.10;;;10.60;99.90;;;;;;5076478;28;20127;-64
2022/10/06 06:40:48;;;;;;;3.97;1.08;;;10.60;99.90;;;;;;5072598;28;20131;-65
2022/10/06 06:43:13;;;;;;;3.20;1.00;;;10.70;99.90;;;;;;5073372;28;20052;-64
2022/10/06 06:45:39;;;;;;;5.95;1.30;;;10.70;99.90;;;;;;5073097;28;20097;-64
2022/10/06 06:48:05;;;;;;;3.90;1.10;;;10.90;99.90;;;;;;5072524;28;20056;-64
2022/10/06 06:50:31;;;;;;;4.55;1.50;;;10.90;99.90;;;;;;5073535;28;20095;-64
2022/10/06 06:52:57;;;;;;;7.13;1.45;;;11.00;99.90;;;;;;5073142;28;20098;-65
2022/10/06 06:55:23;;;;;;;5.80;1.27;;;11.00;99.90;;;;;;5073024;28;20080;-64
2022/10/06 06:57:49;;;;;;;4.78;1.23;;;11.10;99.90;;;;;;5071596;28;20044;-64
2022/10/06 07:00:16;;;;;;;6.78;1.30;;;11.20;99.90;;;;;;5073110;28;20131;-65
2022/10/06 07:02:42;;;;;;;4.55;1.20;;;11.20;99.90;;;;;;5072640;28;20529;-64
2022/10/06 07:05:10;;;;;;;4.80;1.05;;;11.30;99.90;;;;;;5072051;28;20496;-65
2022/10/06 07:07:36;;;;;;;6.80;2.00;;;11.20;99.90;;;;;;5067710;28;20079;-64
2022/10/06 07:10:02;;;;;;;4.65;1.13;;;11.30;99.90;;;;;;5066589;28;20509;-64
2022/10/06 07:12:28;;;;;;;4.10;1.42;;;11.40;99.90;;;;;;5071797;28;20037;-65
2022/10/06 07:25:59;;;;;;;5.72;1.00;;;11.70;99.90;;;;;;5068503;28;20110;-63
2022/10/06 07:28:24;;;;;;;4.45;1.38;;;11.70;99.90;;;;;;5068375;28;20040;-64
2022/10/06 07:30:51;;;;;;;4.82;1.52;;;11.80;99.90;;;;;;5069902;28;20044;-63
2022/10/06 07:33:17;;;;;;;3.60;1.08;;;11.80;99.90;;;;;;5078897;28;20056;-63
2022/10/06 07:35:43;;;;;;;5.68;1.50;;;11.90;99.90;;;;;;5076111;28;20358;-64
2022/10/06 07:38:08;;;;;;;4.25;1.30;;;12.00;99.90;;;;;;5069965;28;20044;-64
2022/10/06 07:40:36;;;;;;;5.80;1.25;;;12.10;99.90;;;;;;5078020;28;20094;-63
2022/10/06 07:43:02;;;;;;;3.42;1.00;;;12.20;99.90;;;;;;5079831;28;20109;-63
2022/10/06 07:45:37;;;;;;;7.97;1.30;;;12.20;99.90;;;;;;5082425;28;20076;-64
2022/10/06 07:48:08;;;;;;;3.83;1.10;;;12.30;99.90;;;;;;5083323;28;20510;-62
2022/10/06 07:50:36;;;;;;;4.13;1.35;;;12.40;99.90;;;;;;5075292;28;20369;-63
2022/10/06 07:53:07;;;;;;;6.20;1.55;;;12.50;99.90;;;;;;5071824;28;20061;-63
2022/10/06 07:55:34;;;;;;;3.40;0.90;;;12.60;99.90;;;;;;5070311;28;20058;-63
2022/10/06 07:58:00;;;;;;;2.95;1.00;;;12.60;99.90;;;;;;5071894;28;20063;-63
2022/10/06 08:00:26;;;;;;;5.80;1.40;;;12.70;99.90;;;;;;5071360;28;20401;-63
2022/10/06 08:02:53;;;;;;;5.57;1.35;;;12.80;99.90;;;;;;5073924;28;20059;-63
2022/10/06 08:05:20;;;;;;;5.50;1.23;;;12.90;99.90;;;;;;5071451;28;20493;-64
2022/10/06 08:07:46;;;;;;;3.78;1.40;;;12.90;99.90;;;;;;5071435;28;20406;-63
2022/10/06 08:10:11;;;;;;;4.97;1.20;;;13.00;99.90;;;;;;5071425;28;20063;-64
2022/10/06 08:12:39;;;;;;;5.18;1.38;;;13.10;99.90;;;;;;5080354;28;20037;-64
2022/10/06 08:15:06;;;;;;;5.07;1.00;;;13.20;99.90;;;;;;5075748;28;20109;-64
2022/10/06 08:17:34;;;;;;;3.92;1.30;;;13.20;99.90;;;;;;5112633;27;20486;-64
2022/10/06 08:19:59;;;;;;;5.30;1.40;;;13.30;99.90;;;;;;5072689;28;20571;-63
2022/10/06 08:22:29;;;;;;;4.07;1.10;;;13.40;99.90;;;;;;5071147;28;20131;-64
2022/10/06 08:24:57;;;;;;;5.60;1.17;;;13.40;99.90;;;;;;5072877;28;20452;-64
2022/10/06 08:27:26;;;;;;;5.95;1.20;;;13.50;99.90;;;;;;5090364;28;20060;-63
2022/10/06 08:29:53;;;;;;;5.47;1.27;;;13.50;99.90;;;;;;5078777;28;20054;-64
2022/10/06 08:32:20;;;;;;;4.43;1.10;;;13.60;99.90;;;;;;5081366;28;20109;-63
2022/10/06 08:34:46;;;;;;;4.70;1.30;;;13.70;99.90;;;;;;5072189;28;20040;-64
2022/10/06 08:37:13;;;;;;;3.88;1.20;;;13.70;99.90;;;;;;5075606;28;20044;-63
2022/10/06 08:39:41;;;;;;;5.43;1.45;;;13.80;99.90;;;;;;5080135;28;20044;-64
2022/10/06 08:42:13;;;;;;;3.42;1.10;;;13.80;99.90;;;;;;5088092;28;20051;-63
2022/10/06 08:44:49;;;;;;;4.72;1.08;;;13.90;99.90;;;;;;5073788;28;20125;-64
2022/10/06 08:47:17;;;;;;;;;;;13.90;99.90;;;;;;5071771;28;20540;-62
2022/10/06 08:49:44;;;;;;;6.03;1.40;;;14.00;99.90;;;;;;5076118;28;19951;-63
2022/10/06 08:52:40;;;;;;;5.20;1.27;;;14.00;99.90;;;;;;5070358;28;20114;-64
2022/10/06 08:55:34;;;;;;;5.95;1.10;;;14.10;99.90;;;;;;5098693;27;20535;-63
2022/10/06 08:58:29;;;;;;;3.80;1.02;;;14.20;99.90;;;;;;5077825;28;20036;-64
2022/10/06 09:01:18;;;;;;;6.88;1.27;;;14.30;99.90;;;;;;5077218;28;20044;-63
2022/10/06 09:03:47;;;;;;;3.78;1.30;;;14.30;99.90;;;;;;5081980;28;20075;-63
2022/10/06 09:06:26;;;;;;;5.68;1.20;;;14.40;99.90;;;;;;5069711;28;20485;-63
2022/10/06 09:09:02;;;;;;;5.57;1.73;;;14.50;99.90;;;;;;5070443;28;20477;-63
2022/10/06 09:11:46;;;;;;;;;;;14.60;99.90;;;;;;5071213;28;20389;-63
2022/10/06 09:14:23;;;;;;;4.03;1.15;;;14.60;99.90;;;;;;5070640;28;19924;-63
2022/10/06 09:16:56;;;;;;;4.13;1.20;;;14.70;99.90;;;;;;5073201;28;20044;-63
2022/10/06 09:19:43;;;;;;;4.80;1.40;;;14.80;99.90;;;;;;5079376;28;20063;-64
2022/10/06 09:22:20;;;;;;;5.45;1.30;;;14.90;99.90;;;;;;5081284;28;20079;-64
2022/10/06 09:24:49;;;;;;;3.67;1.00;;;14.90;99.90;;;;;;5072452;28;20052;-64
2022/10/06 09:27:49;;;;;;;5.53;1.33;;;15.00;99.90;;;;;;5086507;28;20056;-63
2022/10/06 09:30:16;;;;;;;4.20;1.13;;;15.10;99.90;;;;;;5075789;28;20059;-63
2022/10/06 09:32:47;;;;;;;3.45;1.52;;;15.00;99.90;;;;;;5079978;28;20489;-64
2022/10/06 09:35:20;;;;;;;4.65;0.90;;;15.10;99.90;;;;;;5076676;28;20501;-64
2022/10/06 09:38:03;;;;;;;5.32;1.10;;;15.20;99.90;;;;;;5070612;28;20094;-64
2022/10/06 09:40:45;;;;;;;3.33;0.95;;;15.00;99.90;;;;;;5069115;28;20084;-63
2022/10/06 09:43:25;;;;;;;2.17;0.80;;;14.90;99.90;;;;;;5067795;28;20442;-65
2022/10/06 09:45:53;;;;;;;5.55;1.30;;;15.10;99.90;;;;;;5067998;28;20405;-65
2022/10/06 09:48:25;;;;;;;3.17;1.38;;;15.20;99.90;;;;;;5075532;28;20050;-66
2022/10/06 09:51:15;;;;;;;4.10;1.02;;;15.30;99.90;;;;;;5071164;28;20462;-65
2022/10/06 09:53:42;;;;;;;4.53;0.90;;;15.20;99.90;;;;;;5068304;28;20425;-69
2022/10/06 09:56:18;;;;;;;2.97;0.93;;;15.20;99.90;;;;;;5073425;28;20079;-65
2022/10/06 09:58:57;;;;;;;2.42;0.88;;;15.10;99.90;;;;;;5077727;28;20079;-64
2022/10/06 10:01:30;;;;;;;3.80;1.02;;;15.10;99.90;;;;;;5074848;28;20067;-65
2022/10/06 10:04:01;;;;;;;2.58;1.13;;;15.20;99.90;;;;;;5076498;28;20052;-64
2022/10/06 10:06:30;;;;;;;4.35;1.33;;;15.40;99.90;;;;;;5078784;28;20401;-65
2022/10/06 10:09:20;;;;;;;3.53;1.30;;;15.50;99.90;;;;;;5072642;28;20064;-65
2022/10/06 10:15:02;;;;;;;4.43;0.80;;;15.50;99.90;;;;;;5055566;28;20558;-64
2022/10/06 10:17:55;;;;;;;4.00;1.10;;;15.50;99.90;;;;;;5081299;28;20048;-65
2022/10/06 10:20:24;;;;;;;7.25;1.20;;;15.50;99.90;;;;;;5082195;28;20400;-65
2022/10/06 10:22:58;;;;;;;2.50;0.75;;;15.50;99.90;;;;;;5088471;28;20047;-65
2022/10/06 10:25:52;;;;;;;5.70;0.90;;;15.50;99.90;;;;;;5082666;28;20052;-65
2022/10/06 10:28:18;;;;;;;4.22;1.00;;;15.40;99.90;;;;;;5081103;28;20351;-65
2022/10/06 10:31:07;;;;;;;3.90;0.85;;;15.40;99.90;;;;;;5080445;28;20040;-65
2022/10/06 10:33:57;;;;;;;2.97;1.00;;;15.50;99.90;;;;;;5070818;28;20067;-65
2022/10/06 10:36:51;;;;;;;6.05;1.13;;;15.60;99.90;;;;;;5079611;28;20091;-65
2022/10/06 10:40:00;;;;;;;4.22;1.00;;;15.50;99.90;;;;;;5073937;28;20045;-64
2022/10/06 10:42:49;;;;;;;6.80;1.00;;;15.30;99.90;;;;;;5040201;28;20055;-64
2022/10/06 10:45:25;;;;;;;5.10;0.95;;;15.30;99.90;;;;;;5070637;28;20052;-64
2022/10/06 10:47:53;;;;;;;2.88;1.35;;;15.40;99.90;;;;;;5082102;28;20063;-64
2022/10/06 10:50:18;;;;;;;7.07;1.10;;;15.40;99.90;;;;;;5079987;28;20040;-64
2022/10/06 10:52:47;;;;;;;3.25;1.05;;;15.40;99.90;;;;;;5083831;28;20392;-64
2022/10/06 10:55:38;;;;;;;3.22;1.25;;;15.40;99.90;;;;;;5081220;28;20061;-64
2022/10/06 10:58:18;;;;;;;5.00;1.40;;;15.40;99.90;;;;;;5071339;28;20040;-64
2022/10/06 11:00:50;;;;;;;3.65;0.90;;;15.50;99.90;;;;;;5076555;28;20048;-65
2022/10/06 11:03:16;;;;;;;3.78;1.10;;;15.60;99.90;;;;;;5076694;28;20056;-65
2022/10/06 11:06:15;;;;;;;4.25;1.10;;;15.70;99.90;;;;;;5077434;28;20381;-64
2022/10/06 11:09:21;;;;;;;4.35;1.10;;;15.90;99.90;;;;;;5074180;28;20072;-66
2022/10/06 11:12:07;;;;;;;4.25;1.10;;;15.90;99.90;;;;;;5069162;28;20059;-65
2022/10/06 11:14:44;;;;;;;2.33;0.95;;;15.90;99.90;;;;;;5056450;28;20724;-65
2022/10/06 11:17:22;;;;;;;5.15;1.10;;;16.10;99.90;;;;;;5075084;28;20055;-67
2022/10/06 11:19:57;;;;;;;5.03;1.15;;;16.10;99.90;;;;;;5074130;28;20047;-65
2022/10/06 11:22:43;;;;;;;4.28;1.20;;;16.10;99.90;;;;;;5078248;28;20083;-67
2022/10/06 11:25:24;;;;;;;3.72;1.10;;;16.10;99.90;;;;;;5081922;28;20369;-65
2022/10/06 11:28:12;;;;;;;3.45;1.00;;;16.00;99.90;;;;;;5076053;28;20055;-65
2022/10/06 11:30:52;;;;;;;3.33;1.25;;;16.00;99.90;;;;;;5073840;28;20044;-66
2022/10/06 11:33:54;;;;;;;3.83;1.30;;;16.00;99.90;;;;;;5079965;28;20051;-64
2022/10/06 11:36:48;;;;;;;5.30;1.27;;;16.10;99.90;;;;;;5083680;28;20048;-64
2022/10/06 11:39:18;;;;;;;3.10;0.90;;;16.00;99.90;;;;;;5110302;27;20097;-64
2022/10/06 11:42:23;;;;;;;4.45;1.35;;;16.00;99.90;;;;;;5077327;28;20119;-65
2022/10/06 11:45:03;;;;;;;3.67;0.85;;;15.90;99.90;;;;;;5075724;28;20044;-65
2022/10/06 11:47:39;;;;;;;2.72;0.93;;;15.90;99.90;;;;;;5075645;28;20044;-65
2022/10/06 11:50:32;;;;;;;2.63;0.93;;;15.80;99.90;;;;;;5077000;28;20055;-66
2022/10/06 11:52:58;;;;;;;3.10;1.05;;;15.60;99.90;;;;;;5072639;28;20045;-67
2022/10/06 11:55:27;;;;;;;4.18;1.10;;;15.40;99.90;;;;;;5074099;28;20098;-66
2022/10/06 11:58:08;;;;;;;3.13;0.90;;;15.20;99.90;;;;;;5077813;28;20435;-68
2022/10/06 12:00:34;;;;;;;4.05;0.80;;;15.30;99.90;;;;;;5070369;28;20040;-67
2022/10/06 12:03:27;;;;;;;2.33;0.90;;;15.50;99.90;;;;;;5075882;28;20502;-67
2022/10/06 12:05:53;;;;;;;4.80;1.20;;;15.70;99.90;;;;;;5077852;28;20047;-66
2022/10/06 12:08:41;;;;;;;4.22;0.90;;;16.00;99.90;;;;;;5075559;28;20036;-70
2022/10/06 12:11:41;;;;;;;4.68;1.00;;;16.30;99.90;;;;;;5076732;28;20160;-67
2022/10/06 12:14:36;;;;;;;3.05;0.90;;;16.40;99.90;;;;;;5072622;28;20054;-65
2022/10/06 12:17:13;;;;;;;3.58;1.00;;;16.50;99.90;;;;;;5077364;28;20057;-66
2022/10/06 12:20:18;;;;;;;4.78;1.33;;;16.50;99.90;;;;;;5083836;28;20501;-65
2022/10/06 12:23:03;;;;;;;1.60;0.77;;;16.30;99.90;;;;;;5086161;28;20048;-66
2022/10/06 12:25:42;;;;;;;3.60;1.35;;;16.00;99.90;;;;;;5085827;28;20721;-66
2022/10/06 12:28:26;;;;;;;2.22;0.98;;;15.90;99.90;;;;;;5083965;28;20048;-62
2022/10/06 12:30:57;;;;;;;2.28;0.88;;;16.10;99.90;;;;;;5083911;28;20479;-65
2022/10/06 12:33:39;;;;;;;2.45;0.80;;;16.30;99.90;;;;;;5084606;28;20113;-62
2022/10/06 12:36:30;;;;;;;4.22;1.10;;;16.50;99.90;;;;;;5083748;28;20132;-65
2022/10/06 12:39:21;;;;;;;5.97;0.95;;;16.50;99.90;;;;;;5082314;28;20528;-65
2022/10/06 12:42:06;;;;;;;2.00;0.70;;;16.50;99.90;;;;;;5086435;28;20477;-64
2022/10/06 12:44:43;;;;;;;2.70;0.90;;;16.50;99.90;;;;;;5087900;28;20040;-65
2022/10/06 12:47:33;;;;;;;3.83;1.00;;;16.50;99.90;;;;;;5083854;28;20048;-69
2022/10/06 12:50:03;;;;;;;2.53;0.80;;;16.40;99.90;;;;;;5081983;28;20066;-67
2022/10/06 12:52:43;;;;;;;2.03;0.80;;;16.40;99.90;;;;;;5087376;28;20531;-65
2022/10/06 12:55:19;;;;;;;2.53;0.80;;;16.50;99.90;;;;;;5082848;28;20074;-66
2022/10/06 12:57:47;;;;;;;3.47;0.82;;;16.60;99.90;;;;;;5085887;28;20571;-64
2022/10/06 13:00:33;;;;;;;3.90;0.90;;;16.60;99.90;;;;;;5087417;28;20063;-65
2022/10/06 13:03:01;;;;;;;3.15;0.73;;;16.50;99.90;;;;;;5084311;28;20209;-64
2022/10/06 13:05:27;;;;;;;1.75;0.88;;;16.50;99.90;;;;;;5084956;28;20051;-64
2022/10/06 13:08:03;;;;;;;3.40;0.73;;;16.50;99.90;;;;;;5087471;28;20040;-63
2022/10/06 13:10:33;;;;;;;1.80;0.63;;;16.40;99.90;;;;;;5085851;28;20052;-64
2022/10/06 13:13:00;;;;;;;4.88;0.90;;;16.30;99.90;;;;;;5087302;28;20036;-63
2022/10/06 13:15:29;;;;;;;1.63;1.02;;;16.20;99.90;;;;;;5086923;28;20046;-65
2022/10/06 13:18:09;;;;;;;3.22;0.70;;;16.20;99.90;;;;;;5086691;28;20105;-64
2022/10/06 13:20:35;;;;;;;2.58;0.90;;;16.20;99.90;;;;;;5086658;28;20052;-63
2022/10/06 13:23:17;;;;;;;2.15;0.73;;;16.20;99.90;;;;;;5086713;28;20048;-63
2022/10/06 13:25:58;;;;;;;3.40;0.88;;;16.20;99.90;;;;;;5085596;28;20116;-65
2022/10/06 13:28:35;;;;;;;3.33;1.15;;;16.20;99.90;;;;;;5084428;28;20108;-65